sensor_id;sensor_type;location;lat;lon;timestamp;temperature;humidity
3940;DHT22;1984;48.312;9.244;2023-03-14T00:02:16;8.20;99.90
3940;DHT22;1984;48.312;9.244;2023-03-14T00:04:42;8.20;99.90
3940;DHT22;1984;48.312;9.244;2023-03-14T00:07:07;8.20;99.90
3940;DHT22;1984;48.312;9.244;2023-03-14T00:09:35;8.20;99.90
3940;DHT22;1984;48.312;9.244;2023-03-14T00:12:00;8.10;99.90
3940;DHT22;1984;48.312;9.244;2023-03-14T00:14:28;8.10;99.90
3940;DHT22;1984;48.312;9.244;2023-03-14T00:16:54;8.10;99.90
3940;DHT22;1984;48.312;9.244;2023-03-14T00:19:19;8.10;99.90
3940;DHT22;1984;48.312;9.244;2023-03-14T00:21:44;8.00;99.90
3940;DHT22;1984;48.312;9.244;2023-03-14T00:24:10;8.00;99.90
3940;DHT22;1984;48.312;9.244;2023-03-14T00:26:36;8.00;99.90
3940;DHT22;1984;48.312;9.244;2023-03-14T00:29:01;8.00;99.90
3940;DHT22;1984;48.312;9.244;2023-03-14T00:31:27;8.00;99.90
3940;DHT22;1984;48.312;9.244;2023-03-14T00:33:53;7.90;99.90
3940;DHT22;1984;48.312;9.244;2023-03-14T00:36:19;7.90;99.90
3940;DHT22;1984;48.312;9.244;2023-03-14T00:38:49;7.90;99.90
3940;DHT22;1984;48.312;9.244;2023-03-14T00:41:18;7.90;99.90
3940;DHT22;1984;48.312;9.244;2023-03-14T00:43:44;7.90;99.90
3940;DHT22;1984;48.312;9.244;2023-03-14T00:46:11;7.80;99.90
3940;DHT22;1984;48.312;9.244;2023-03-14T00:48:37;7.90;99.90
3940;DHT22;1984;48.312;9.244;2023-03-14T00:51:07;7.90;99.90
3940;DHT22;1984;48.312;9.244;2023-03-14T00:53:35;7.80;99.90
3940;DHT22;1984;48.312;9.244;2023-03-14T00:56:06;7.80;99.90
3940;DHT22;1984;48.312;9.244;2023-03-14T00:58:33;7.80;99.90
3940;DHT22;1984;48.312;9.244;2023-03-14T01:00:58;7.80;99.90
3940;DHT22;1984;48.312;9.244;2023-03-14T01:03:24;7.80;99.90
3940;DHT22;1984;48.312;9.244;2023-03-14T01:05:50;7.80;99.90
3940;DHT22;1984;48.312;9.244;2023-03-14T01:08:16;7.80;99.90
3940;DHT22;1984;48.312;9.244;2023-03-14T01:10:41;7.70;99.90
3940;DHT22;1984;48.312;9.244;2023-03-14T01:13:08;7.70;99.90
3940;DHT22;1984;48.312;9.244;2023-03-14T01:15:35;7.80;99.90
3940;DHT22;1984;48.312;9.244;2023-03-14T01:18:00;7.80;99.90
3940;DHT22;1984;48.312;9.244;2023-03-14T01:20:26;7.80;99.90
3940;DHT22;1984;48.312;9.244;2023-03-14T01:22:52;7.90;99.90
3940;DHT22;1984;48.312;9.244;2023-03-14T01:25:18;7.90;99.90
3940;DHT22;1984;48.312;9.244;2023-03-14T01:27:44;7.90;99.90
3940;DHT22;1984;48.312;9.244;2023-03-14T01:30:11;7.90;99.90
3940;DHT22;1984;48.312;9.244;2023-03-14T01:32:38;7.90;99.90
3940;DHT22;1984;48.312;9.244;2023-03-14T01:35:04;7.80;99.90
3940;DHT22;1984;48.312;9.244;2023-03-14T01:37:29;7.80;99.90
3940;DHT22;1984;48.312;9.244;2023-03-14T01:39:55;7.90;99.90
3940;DHT22;1984;48.312;9.244;2023-03-14T01:42:20;7.90;99.90
3940;DHT22;1984;48.312;9.244;2023-03-14T01:44:54;7.90;99.90
3940;DHT22;1984;48.312;9.244;2023-03-14T01:47:21;7.90;99.90
3940;DHT22;1984;48.312;9.244;2023-03-14T01:52:22;7.90;99.90
3940;DHT22;1984;48.312;9.244;2023-03-14T01:55:05;7.80;99.90
3940;DHT22;1984;48.312;9.244;2023-03-14T01:57:44;7.90;99.90
3940;DHT22;1984;48.312;9.244;2023-03-14T02:00:16;7.90;99.90
3940;DHT22;1984;48.312;9.244;2023-03-14T02:02:45;7.90;99.90
3940;DHT22;1984;48.312;9.244;2023-03-14T02:05:12;7.90;99.90
3940;DHT22;1984;48.312;9.244;2023-03-14T02:07:54;7.90;99.90
3940;DHT22;1984;48.312;9.244;2023-03-14T02:10:24;7.90;99.90
3940;DHT22;1984;48.312;9.244;2023-03-14T02:12:50;7.90;99.90
3940;DHT22;1984;48.312;9.244;2023-03-14T02:15:17;7.90;99.90
3940;DHT22;1984;48.312;9.244;2023-03-14T02:17:43;7.90;99.90
3940;DHT22;1984;48.312;9.244;2023-03-14T02:20:13;7.90;99.90
3940;DHT22;1984;48.312;9.244;2023-03-14T02:22:43;7.90;99.90
3940;DHT22;1984;48.312;9.244;2023-03-14T02:27:41;8.00;99.90
3940;DHT22;1984;48.312;9.244;2023-03-14T02:30:11;8.00;99.90
3940;DHT22;1984;48.312;9.244;2023-03-14T02:32:39;7.90;99.90
3940;DHT22;1984;48.312;9.244;2023-03-14T02:35:09;7.90;99.90
3940;DHT22;1984;48.312;9.244;2023-03-14T02:40:40;7.90;99.90
3940;DHT22;1984;48.312;9.244;2023-03-14T02:43:06;7.90;99.90
3940;DHT22;1984;48.312;9.244;2023-03-14T02:45:46;7.90;99.90
3940;DHT22;1984;48.312;9.244;2023-03-14T02:48:36;7.80;99.90
3940;DHT22;1984;48.312;9.244;2023-03-14T02:51:04;7.90;99.90
3940;DHT22;1984;48.312;9.244;2023-03-14T02:53:32;7.90;99.90
3940;DHT22;1984;48.312;9.244;2023-03-14T02:55:58;7.90;99.90
3940;DHT22;1984;48.312;9.244;2023-03-14T02:58:25;7.80;99.90
3940;DHT22;1984;48.312;9.244;2023-03-14T03:00:51;7.90;99.90
3940;DHT22;1984;48.312;9.244;2023-03-14T03:03:17;7.80;99.90
3940;DHT22;1984;48.312;9.244;2023-03-14T03:05:43;7.90;99.90
3940;DHT22;1984;48.312;9.244;2023-03-14T03:08:09;7.80;99.90
3940;DHT22;1984;48.312;9.244;2023-03-14T03:10:35;7.80;99.90
3940;DHT22;1984;48.312;9.244;2023-03-14T03:13:01;7.90;99.90
3940;DHT22;1984;48.312;9.244;2023-03-14T03:15:27;7.90;99.90
3940;DHT22;1984;48.312;9.244;2023-03-14T03:17:53;7.90;99.90
3940;DHT22;1984;48.312;9.244;2023-03-14T03:20:18;7.90;99.90
3940;DHT22;1984;48.312;9.244;2023-03-14T03:22:44;7.90;99.90
3940;DHT22;1984;48.312;9.244;2023-03-14T03:25:09;7.90;99.90
3940;DHT22;1984;48.312;9.244;2023-03-14T03:27:36;8.00;99.90
3940;DHT22;1984;48.312;9.244;2023-03-14T03:30:04;8.00;99.90
3940;DHT22;1984;48.312;9.244;2023-03-14T03:32:30;8.00;99.90
3940;DHT22;1984;48.312;9.244;2023-03-14T03:34:55;7.90;99.90
3940;DHT22;1984;48.312;9.244;2023-03-14T03:37:21;7.90;99.90
3940;DHT22;1984;48.312;9.244;2023-03-14T03:39:46;8.00;99.90
3940;DHT22;1984;48.312;9.244;2023-03-14T03:42:12;8.00;99.90
3940;DHT22;1984;48.312;9.244;2023-03-14T03:44:37;8.00;99.90
3940;DHT22;1984;48.312;9.244;2023-03-14T03:47:03;7.90;99.90
3940;DHT22;1984;48.312;9.244;2023-03-14T03:49:32;7.90;99.90
3940;DHT22;1984;48.312;9.244;2023-03-14T03:51:58;7.90;99.90
3940;DHT22;1984;48.312;9.244;2023-03-14T03:54:24;7.80;99.90
3940;DHT22;1984;48.312;9.244;2023-03-14T03:56:49;7.80;99.90
3940;DHT22;1984;48.312;9.244;2023-03-14T03:59:15;7.80;99.90
3940;DHT22;1984;48.312;9.244;2023-03-14T04:01:41;7.80;99.90
3940;DHT22;1984;48.312;9.244;2023-03-14T04:04:07;7.80;99.90
3940;DHT22;1984;48.312;9.244;2023-03-14T04:06:33;7.70;99.90
3940;DHT22;1984;48.312;9.244;2023-03-14T04:08:58;7.80;99.90
3940;DHT22;1984;48.312;9.244;2023-03-14T04:11:24;7.70;99.90
3940;DHT22;1984;48.312;9.244;2023-03-14T04:13:49;7.70;99.90
3940;DHT22;1984;48.312;9.244;2023-03-14T04:16:18;7.70;99.90
3940;DHT22;1984;48.312;9.244;2023-03-14T04:18:44;7.60;99.90
3940;DHT22;1984;48.312;9.244;2023-03-14T04:21:09;7.60;99.90
3940;DHT22;1984;48.312;9.244;2023-03-14T04:23:35;7.70;99.90
3940;DHT22;1984;48.312;9.244;2023-03-14T04:26:00;7.70;99.90
3940;DHT22;1984;48.312;9.244;2023-03-14T04:28:26;7.70;99.90
3940;DHT22;1984;48.312;9.244;2023-03-14T04:30:51;7.70;99.90
3940;DHT22;1984;48.312;9.244;2023-03-14T04:33:17;7.70;99.90
3940;DHT22;1984;48.312;9.244;2023-03-14T04:35:44;7.60;99.90
3940;DHT22;1984;48.312;9.244;2023-03-14T04:38:10;7.60;99.90
3940;DHT22;1984;48.312;9.244;2023-03-14T04:40:40;7.70;99.90
3940;DHT22;1984;48.312;9.244;2023-03-14T04:43:10;7.60;99.90
3940;DHT22;1984;48.312;9.244;2023-03-14T04:45:36;7.60;99.90
3940;DHT22;1984;48.312;9.244;2023-03-14T04:48:01;7.60;99.90
3940;DHT22;1984;48.312;9.244;2023-03-14T04:50:27;7.50;99.90
3940;DHT22;1984;48.312;9.244;2023-03-14T04:52:53;7.40;99.90
3940;DHT22;1984;48.312;9.244;2023-03-14T04:55:18;7.40;99.90
3940;DHT22;1984;48.312;9.244;2023-03-14T04:57:44;7.40;99.90
3940;DHT22;1984;48.312;9.244;2023-03-14T05:00:10;7.40;99.90
3940;DHT22;1984;48.312;9.244;2023-03-14T05:02:35;7.40;99.90
3940;DHT22;1984;48.312;9.244;2023-03-14T05:05:01;7.30;99.90
3940;DHT22;1984;48.312;9.244;2023-03-14T05:07:27;7.30;99.90
3940;DHT22;1984;48.312;9.244;2023-03-14T05:09:52;7.30;99.90
3940;DHT22;1984;48.312;9.244;2023-03-14T05:12:21;7.30;99.90
3940;DHT22;1984;48.312;9.244;2023-03-14T05:14:47;7.20;99.90
3940;DHT22;1984;48.312;9.244;2023-03-14T05:17:13;7.20;99.90
3940;DHT22;1984;48.312;9.244;2023-03-14T05:19:40;7.20;99.90
3940;DHT22;1984;48.312;9.244;2023-03-14T05:22:06;7.10;99.90
3940;DHT22;1984;48.312;9.244;2023-03-14T05:24:32;7.10;99.90
3940;DHT22;1984;48.312;9.244;2023-03-14T05:26:57;7.00;99.90
3940;DHT22;1984;48.312;9.244;2023-03-14T05:29:23;7.00;99.90
3940;DHT22;1984;48.312;9.244;2023-03-14T05:31:48;7.00;99.90
3940;DHT22;1984;48.312;9.244;2023-03-14T05:34:14;7.00;99.90
3940;DHT22;1984;48.312;9.244;2023-03-14T05:36:39;7.00;99.90
3940;DHT22;1984;48.312;9.244;2023-03-14T05:39:05;7.00;99.90
3940;DHT22;1984;48.312;9.244;2023-03-14T05:41:30;7.00;99.90
3940;DHT22;1984;48.312;9.244;2023-03-14T05:43:56;7.00;99.90
3940;DHT22;1984;48.312;9.244;2023-03-14T05:46:21;6.90;99.90
3940;DHT22;1984;48.312;9.244;2023-03-14T05:48:47;6.90;99.90
3940;DHT22;1984;48.312;9.244;2023-03-14T05:51:12;6.90;99.90
3940;DHT22;1984;48.312;9.244;2023-03-14T05:53:38;6.90;99.90
3940;DHT22;1984;48.312;9.244;2023-03-14T05:56:03;6.90;99.90
3940;DHT22;1984;48.312;9.244;2023-03-14T05:58:29;6.90;99.90
3940;DHT22;1984;48.312;9.244;2023-03-14T06:00:55;6.90;99.90
3940;DHT22;1984;48.312;9.244;2023-03-14T06:03:20;6.80;99.90
3940;DHT22;1984;48.312;9.244;2023-03-14T06:05:46;6.90;99.90
3940;DHT22;1984;48.312;9.244;2023-03-14T06:08:11;6.80;99.90
3940;DHT22;1984;48.312;9.244;2023-03-14T06:10:37;6.80;99.90
3940;DHT22;1984;48.312;9.244;2023-03-14T06:13:03;6.80;99.90
3940;DHT22;1984;48.312;9.244;2023-03-14T06:15:28;6.80;99.90
3940;DHT22;1984;48.312;9.244;2023-03-14T06:17:55;6.70;99.90
3940;DHT22;1984;48.312;9.244;2023-03-14T06:20:21;6.80;99.90
3940;DHT22;1984;48.312;9.244;2023-03-14T06:22:46;6.80;99.90
3940;DHT22;1984;48.312;9.244;2023-03-14T06:25:12;6.80;99.90
3940;DHT22;1984;48.312;9.244;2023-03-14T06:27:37;6.80;99.90
3940;DHT22;1984;48.312;9.244;2023-03-14T06:30:03;6.80;99.90
3940;DHT22;1984;48.312;9.244;2023-03-14T06:32:29;6.80;99.90
3940;DHT22;1984;48.312;9.244;2023-03-14T06:34:55;6.70;99.90
3940;DHT22;1984;48.312;9.244;2023-03-14T06:37:22;6.70;99.90
3940;DHT22;1984;48.312;9.244;2023-03-14T06:39:48;6.70;99.90
3940;DHT22;1984;48.312;9.244;2023-03-14T06:42:13;6.80;99.90
3940;DHT22;1984;48.312;9.244;2023-03-14T06:44:39;6.80;99.90
3940;DHT22;1984;48.312;9.244;2023-03-14T06:47:04;6.70;99.90
3940;DHT22;1984;48.312;9.244;2023-03-14T06:49:30;6.70;99.90
3940;DHT22;1984;48.312;9.244;2023-03-14T06:51:55;6.80;99.90
3940;DHT22;1984;48.312;9.244;2023-03-14T06:54:21;6.80;99.90
3940;DHT22;1984;48.312;9.244;2023-03-14T06:56:47;6.80;99.90
3940;DHT22;1984;48.312;9.244;2023-03-14T06:59:12;6.80;99.90
3940;DHT22;1984;48.312;9.244;2023-03-14T07:01:38;6.90;99.90
3940;DHT22;1984;48.312;9.244;2023-03-14T07:04:03;7.00;99.90
3940;DHT22;1984;48.312;9.244;2023-03-14T07:06:29;7.20;99.90
3940;DHT22;1984;48.312;9.244;2023-03-14T07:08:55;7.30;99.90
3940;DHT22;1984;48.312;9.244;2023-03-14T07:11:23;7.40;99.90
3940;DHT22;1984;48.312;9.244;2023-03-14T07:13:49;7.60;99.90
3940;DHT22;1984;48.312;9.244;2023-03-14T07:16:14;7.60;99.90
3940;DHT22;1984;48.312;9.244;2023-03-14T07:18:40;7.60;99.90
3940;DHT22;1984;48.312;9.244;2023-03-14T07:21:08;7.80;99.90
3940;DHT22;1984;48.312;9.244;2023-03-14T07:23:38;7.90;99.90
3940;DHT22;1984;48.312;9.244;2023-03-14T07:26:03;8.20;99.90
3940;DHT22;1984;48.312;9.244;2023-03-14T07:28:29;8.50;99.90
3940;DHT22;1984;48.312;9.244;2023-03-14T07:30:56;8.90;99.90
3940;DHT22;1984;48.312;9.244;2023-03-14T07:33:21;9.60;99.90
3940;DHT22;1984;48.312;9.244;2023-03-14T07:35:48;10.30;99.90
3940;DHT22;1984;48.312;9.244;2023-03-14T07:38:14;11.00;99.90
3940;DHT22;1984;48.312;9.244;2023-03-14T07:40:40;11.70;99.90
3940;DHT22;1984;48.312;9.244;2023-03-14T07:43:06;12.60;99.90
3940;DHT22;1984;48.312;9.244;2023-03-14T07:45:32;13.10;99.90
3940;DHT22;1984;48.312;9.244;2023-03-14T07:47:57;14.10;99.90
3940;DHT22;1984;48.312;9.244;2023-03-14T07:50:26;14.90;99.90
3940;DHT22;1984;48.312;9.244;2023-03-14T07:52:52;15.60;99.90
3940;DHT22;1984;48.312;9.244;2023-03-14T07:55:17;16.30;99.90
3940;DHT22;1984;48.312;9.244;2023-03-14T07:57:43;16.90;99.90
3940;DHT22;1984;48.312;9.244;2023-03-14T08:00:09;17.20;99.90
3940;DHT22;1984;48.312;9.244;2023-03-14T08:02:35;17.50;99.90
3940;DHT22;1984;48.312;9.244;2023-03-14T08:05:05;17.40;99.90
3940;DHT22;1984;48.312;9.244;2023-03-14T08:07:30;17.10;99.90
3940;DHT22;1984;48.312;9.244;2023-03-14T08:09:56;16.60;99.90
3940;DHT22;1984;48.312;9.244;2023-03-14T08:12:21;17.10;99.90
3940;DHT22;1984;48.312;9.244;2023-03-14T08:14:47;17.90;99.90
3940;DHT22;1984;48.312;9.244;2023-03-14T08:17:12;17.70;99.90
3940;DHT22;1984;48.312;9.244;2023-03-14T08:19:38;17.00;99.90
3940;DHT22;1984;48.312;9.244;2023-03-14T08:22:04;16.00;99.90
3940;DHT22;1984;48.312;9.244;2023-03-14T08:24:29;15.00;99.90
3940;DHT22;1984;48.312;9.244;2023-03-14T08:26:55;14.00;99.90
3940;DHT22;1984;48.312;9.244;2023-03-14T08:29:20;13.20;99.90
3940;DHT22;1984;48.312;9.244;2023-03-14T08:31:46;12.60;99.90
3940;DHT22;1984;48.312;9.244;2023-03-14T08:34:14;12.20;99.90
3940;DHT22;1984;48.312;9.244;2023-03-14T08:36:40;11.90;99.90
3940;DHT22;1984;48.312;9.244;2023-03-14T08:39:06;11.50;99.90
3940;DHT22;1984;48.312;9.244;2023-03-14T08:41:33;11.40;99.90
3940;DHT22;1984;48.312;9.244;2023-03-14T08:43:58;11.40;99.90
3940;DHT22;1984;48.312;9.244;2023-03-14T08:46:24;11.30;99.90
3940;DHT22;1984;48.312;9.244;2023-03-14T08:48:49;11.20;99.90
3940;DHT22;1984;48.312;9.244;2023-03-14T08:51:15;11.10;99.90
3940;DHT22;1984;48.312;9.244;2023-03-14T08:53:41;11.10;99.90
3940;DHT22;1984;48.312;9.244;2023-03-14T08:56:07;11.00;99.90
3940;DHT22;1984;48.312;9.244;2023-03-14T08:58:35;11.00;99.90
3940;DHT22;1984;48.312;9.244;2023-03-14T09:01:07;11.00;99.90
3940;DHT22;1984;48.312;9.244;2023-03-14T09:03:33;10.90;99.90
3940;DHT22;1984;48.312;9.244;2023-03-14T09:06:05;10.80;99.90
3940;DHT22;1984;48.312;9.244;2023-03-14T09:08:31;10.80;99.90
3940;DHT22;1984;48.312;9.244;2023-03-14T09:10:57;10.90;99.90
3940;DHT22;1984;48.312;9.244;2023-03-14T09:13:23;11.10;99.90
3940;DHT22;1984;48.312;9.244;2023-03-14T09:15:57;11.30;99.90
3940;DHT22;1984;48.312;9.244;2023-03-14T09:18:22;11.20;99.90
3940;DHT22;1984;48.312;9.244;2023-03-14T09:20:48;11.10;99.90
3940;DHT22;1984;48.312;9.244;2023-03-14T09:23:14;10.90;99.90
3940;DHT22;1984;48.312;9.244;2023-03-14T09:25:40;10.70;99.90
3940;DHT22;1984;48.312;9.244;2023-03-14T09:28:05;10.60;99.90
3940;DHT22;1984;48.312;9.244;2023-03-14T09:30:31;10.60;99.90
3940;DHT22;1984;48.312;9.244;2023-03-14T09:32:57;10.50;99.90
3940;DHT22;1984;48.312;9.244;2023-03-14T09:35:24;10.40;99.90
3940;DHT22;1984;48.312;9.244;2023-03-14T09:37:49;10.40;99.90
3940;DHT22;1984;48.312;9.244;2023-03-14T09:40:17;10.30;99.90
3940;DHT22;1984;48.312;9.244;2023-03-14T09:42:43;10.20;99.90
3940;DHT22;1984;48.312;9.244;2023-03-14T09:45:17;10.10;99.90
3940;DHT22;1984;48.312;9.244;2023-03-14T09:47:44;10.10;99.90
3940;DHT22;1984;48.312;9.244;2023-03-14T09:50:15;10.00;99.90
3940;DHT22;1984;48.312;9.244;2023-03-14T09:52:43;10.00;99.90
3940;DHT22;1984;48.312;9.244;2023-03-14T09:55:18;10.00;99.90
3940;DHT22;1984;48.312;9.244;2023-03-14T09:57:45;10.20;99.90
3940;DHT22;1984;48.312;9.244;2023-03-14T10:00:21;10.20;99.90
3940;DHT22;1984;48.312;9.244;2023-03-14T10:02:57;10.40;99.90
3940;DHT22;1984;48.312;9.244;2023-03-14T10:05:25;10.50;99.90
3940;DHT22;1984;48.312;9.244;2023-03-14T10:07:53;10.60;99.90
3940;DHT22;1984;48.312;9.244;2023-03-14T10:10:24;10.50;99.90
3940;DHT22;1984;48.312;9.244;2023-03-14T10:13:14;10.50;99.90
3940;DHT22;1984;48.312;9.244;2023-03-14T10:15:40;10.30;99.90
3940;DHT22;1984;48.312;9.244;2023-03-14T10:18:11;10.30;99.90
3940;DHT22;1984;48.312;9.244;2023-03-14T10:20:45;10.30;99.90
3940;DHT22;1984;48.312;9.244;2023-03-14T10:25:38;10.50;99.90
3940;DHT22;1984;48.312;9.244;2023-03-14T10:28:05;10.40;99.90
3940;DHT22;1984;48.312;9.244;2023-03-14T10:30:40;10.30;99.90
3940;DHT22;1984;48.312;9.244;2023-03-14T10:38:41;10.30;99.90
3940;DHT22;1984;48.312;9.244;2023-03-14T10:41:18;10.30;99.90
3940;DHT22;1984;48.312;9.244;2023-03-14T10:43:44;10.10;99.90
3940;DHT22;1984;48.312;9.244;2023-03-14T10:46:18;10.10;99.90
3940;DHT22;1984;48.312;9.244;2023-03-14T10:48:44;10.00;99.90
3940;DHT22;1984;48.312;9.244;2023-03-14T10:53:45;9.90;99.90
3940;DHT22;1984;48.312;9.244;2023-03-14T10:56:22;10.00;99.90
3940;DHT22;1984;48.312;9.244;2023-03-14T10:58:51;9.90;99.90
3940;DHT22;1984;48.312;9.244;2023-03-14T11:04:03;9.80;99.90
3940;DHT22;1984;48.312;9.244;2023-03-14T11:06:34;9.60;99.90
3940;DHT22;1984;48.312;9.244;2023-03-14T11:11:46;9.40;99.90
3940;DHT22;1984;48.312;9.244;2023-03-14T11:16:56;9.40;99.90
3940;DHT22;1984;48.312;9.244;2023-03-14T11:22:36;9.30;99.90
3940;DHT22;1984;48.312;9.244;2023-03-14T11:27:59;9.20;99.90
3940;DHT22;1984;48.312;9.244;2023-03-14T11:30:42;9.20;99.90
3940;DHT22;1984;48.312;9.244;2023-03-14T11:33:37;9.30;99.90
3940;DHT22;1984;48.312;9.244;2023-03-14T11:36:13;9.20;99.90
3940;DHT22;1984;48.312;9.244;2023-03-14T11:38:49;9.10;99.90
3940;DHT22;1984;48.312;9.244;2023-03-14T11:41:19;9.10;99.90
3940;DHT22;1984;48.312;9.244;2023-03-14T11:43:52;9.00;99.90
3940;DHT22;1984;48.312;9.244;2023-03-14T11:46:43;9.00;99.90
3940;DHT22;1984;48.312;9.244;2023-03-14T11:51:47;9.00;99.90
3940;DHT22;1984;48.312;9.244;2023-03-14T11:54:49;9.10;99.90
3940;DHT22;1984;48.312;9.244;2023-03-14T11:57:19;9.10;99.90
3940;DHT22;1984;48.312;9.244;2023-03-14T12:10:27;9.20;99.90
3940;DHT22;1984;48.312;9.244;2023-03-14T12:12:53;9.10;99.90
3940;DHT22;1984;48.312;9.244;2023-03-14T12:15:21;9.10;99.90
3940;DHT22;1984;48.312;9.244;2023-03-14T12:17:53;9.10;99.90
3940;DHT22;1984;48.312;9.244;2023-03-14T12:20:22;9.10;99.90
3940;DHT22;1984;48.312;9.244;2023-03-14T12:27:44;8.70;99.90
3940;DHT22;1984;48.312;9.244;2023-03-14T12:33:19;8.50;99.90
3940;DHT22;1984;48.312;9.244;2023-03-14T12:35:49;8.40;99.90
3940;DHT22;1984;48.312;9.244;2023-03-14T12:38:32;8.40;99.90
3940;DHT22;1984;48.312;9.244;2023-03-14T12:41:17;8.40;99.90
3940;DHT22;1984;48.312;9.244;2023-03-14T12:43:45;8.30;99.90
3940;DHT22;1984;48.312;9.244;2023-03-14T12:48:53;8.30;99.90
3940;DHT22;1984;48.312;9.244;2023-03-14T12:51:26;8.10;99.90
3940;DHT22;1984;48.312;9.244;2023-03-14T12:59:32;7.10;99.90
3940;DHT22;1984;48.312;9.244;2023-03-14T13:02:09;6.90;99.90
3940;DHT22;1984;48.312;9.244;2023-03-14T13:04:48;6.70;99.90
3940;DHT22;1984;48.312;9.244;2023-03-14T13:15:34;7.20;99.90
3940;DHT22;1984;48.312;9.244;2023-03-14T13:18:11;7.20;99.90
3940;DHT22;1984;48.312;9.244;2023-03-14T13:20:51;7.20;99.90
3940;DHT22;1984;48.312;9.244;2023-03-14T13:23:22;7.10;99.90
3940;DHT22;1984;48.312;9.244;2023-03-14T13:25:48;6.90;99.90
3940;DHT22;1984;48.312;9.244;2023-03-14T13:28:15;6.90;99.90
3940;DHT22;1984;48.312;9.244;2023-03-14T13:30:44;6.90;99.90
3940;DHT22;1984;48.312;9.244;2023-03-14T13:33:18;6.80;99.90
3940;DHT22;1984;48.312;9.244;2023-03-14T13:36:02;6.70;99.90
3940;DHT22;1984;48.312;9.244;2023-03-14T13:38:31;6.70;99.90
3940;DHT22;1984;48.312;9.244;2023-03-14T13:40:59;6.80;99.90
3940;DHT22;1984;48.312;9.244;2023-03-14T13:43:32;6.80;99.90
3940;DHT22;1984;48.312;9.244;2023-03-14T13:46:02;6.90;99.90
3940;DHT22;1984;48.312;9.244;2023-03-14T13:48:30;6.90;99.90
3940;DHT22;1984;48.312;9.244;2023-03-14T13:51:09;6.80;99.90
3940;DHT22;1984;48.312;9.244;2023-03-14T13:53:54;6.90;99.90
3940;DHT22;1984;48.312;9.244;2023-03-14T13:56:21;6.90;99.90
3940;DHT22;1984;48.312;9.244;2023-03-14T13:58:48;6.90;99.90
3940;DHT22;1984;48.312;9.244;2023-03-14T14:03:45;6.80;99.90
3940;DHT22;1984;48.312;9.244;2023-03-14T14:06:30;6.90;99.90
3940;DHT22;1984;48.312;9.244;2023-03-14T14:08:59;7.00;99.90
3940;DHT22;1984;48.312;9.244;2023-03-14T14:14:06;7.10;99.90
3940;DHT22;1984;48.312;9.244;2023-03-14T14:16:35;7.10;99.90
3940;DHT22;1984;48.312;9.244;2023-03-14T14:19:01;7.00;99.90
3940;DHT22;1984;48.312;9.244;2023-03-14T14:21:27;7.00;99.90
3940;DHT22;1984;48.312;9.244;2023-03-14T14:23:53;7.00;99.90
3940;DHT22;1984;48.312;9.244;2023-03-14T14:26:19;7.10;99.90
3940;DHT22;1984;48.312;9.244;2023-03-14T14:28:45;7.20;99.90
3940;DHT22;1984;48.312;9.244;2023-03-14T14:33:42;7.50;99.90
3940;DHT22;1984;48.312;9.244;2023-03-14T14:36:41;7.70;99.90
3940;DHT22;1984;48.312;9.244;2023-03-14T14:39:21;7.80;99.90
3940;DHT22;1984;48.312;9.244;2023-03-14T14:41:50;7.70;99.90
3940;DHT22;1984;48.312;9.244;2023-03-14T14:44:20;7.50;99.90
3940;DHT22;1984;48.312;9.244;2023-03-14T14:46:47;7.30;99.90
3940;DHT22;1984;48.312;9.244;2023-03-14T14:49:16;7.00;99.90
3940;DHT22;1984;48.312;9.244;2023-03-14T14:51:48;7.00;99.90
3940;DHT22;1984;48.312;9.244;2023-03-14T14:54:16;6.90;99.90
3940;DHT22;1984;48.312;9.244;2023-03-14T14:56:47;6.70;99.90
3940;DHT22;1984;48.312;9.244;2023-03-14T14:59:26;6.60;99.90
3940;DHT22;1984;48.312;9.244;2023-03-14T15:01:57;6.60;99.90
3940;DHT22;1984;48.312;9.244;2023-03-14T15:04:23;6.50;99.90
3940;DHT22;1984;48.312;9.244;2023-03-14T15:06:49;6.40;99.90
3940;DHT22;1984;48.312;9.244;2023-03-14T15:09:15;6.20;99.90
3940;DHT22;1984;48.312;9.244;2023-03-14T15:11:42;6.20;99.90
3940;DHT22;1984;48.312;9.244;2023-03-14T15:14:08;6.20;99.90
3940;DHT22;1984;48.312;9.244;2023-03-14T15:16:34;6.40;99.90
3940;DHT22;1984;48.312;9.244;2023-03-14T15:19:02;6.50;99.90
3940;DHT22;1984;48.312;9.244;2023-03-14T15:21:31;6.70;99.90
3940;DHT22;1984;48.312;9.244;2023-03-14T15:23:57;6.90;99.90
3940;DHT22;1984;48.312;9.244;2023-03-14T15:26:25;7.10;99.90
3940;DHT22;1984;48.312;9.244;2023-03-14T15:28:51;7.10;99.90
3940;DHT22;1984;48.312;9.244;2023-03-14T15:31:18;7.10;99.90
3940;DHT22;1984;48.312;9.244;2023-03-14T15:33:45;7.10;99.90
3940;DHT22;1984;48.312;9.244;2023-03-14T15:36:28;7.00;99.90
3940;DHT22;1984;48.312;9.244;2023-03-14T15:38:56;7.00;99.90
3940;DHT22;1984;48.312;9.244;2023-03-14T15:41:23;7.10;99.90
3940;DHT22;1984;48.312;9.244;2023-03-14T15:43:48;7.30;99.90
3940;DHT22;1984;48.312;9.244;2023-03-14T15:46:14;7.60;99.90
3940;DHT22;1984;48.312;9.244;2023-03-14T15:48:42;7.60;99.90
3940;DHT22;1984;48.312;9.244;2023-03-14T15:51:08;7.50;99.90
3940;DHT22;1984;48.312;9.244;2023-03-14T15:53:34;7.40;99.90
3940;DHT22;1984;48.312;9.244;2023-03-14T15:56:02;7.30;99.90
3940;DHT22;1984;48.312;9.244;2023-03-14T15:58:28;7.30;99.90
3940;DHT22;1984;48.312;9.244;2023-03-14T16:00:54;7.40;99.90
3940;DHT22;1984;48.312;9.244;2023-03-14T16:03:19;7.40;99.90
3940;DHT22;1984;48.312;9.244;2023-03-14T16:05:45;7.30;99.90
3940;DHT22;1984;48.312;9.244;2023-03-14T16:08:10;7.00;99.90
3940;DHT22;1984;48.312;9.244;2023-03-14T16:10:36;6.90;99.90
3940;DHT22;1984;48.312;9.244;2023-03-14T16:13:02;7.00;99.90
3940;DHT22;1984;48.312;9.244;2023-03-14T16:15:27;6.90;99.90
3940;DHT22;1984;48.312;9.244;2023-03-14T16:17:54;6.80;99.90
3940;DHT22;1984;48.312;9.244;2023-03-14T16:20:20;6.70;99.90
3940;DHT22;1984;48.312;9.244;2023-03-14T16:22:46;6.70;99.90
3940;DHT22;1984;48.312;9.244;2023-03-14T16:25:12;6.60;99.90
3940;DHT22;1984;48.312;9.244;2023-03-14T16:27:38;6.60;99.90
3940;DHT22;1984;48.312;9.244;2023-03-14T16:30:04;6.40;99.90
3940;DHT22;1984;48.312;9.244;2023-03-14T16:32:30;6.40;99.90
3940;DHT22;1984;48.312;9.244;2023-03-14T16:34:56;6.40;99.90
3940;DHT22;1984;48.312;9.244;2023-03-14T16:37:24;6.30;99.90
3940;DHT22;1984;48.312;9.244;2023-03-14T16:39:51;6.30;99.90
3940;DHT22;1984;48.312;9.244;2023-03-14T16:42:17;6.30;99.90
3940;DHT22;1984;48.312;9.244;2023-03-14T16:44:43;6.30;99.90
3940;DHT22;1984;48.312;9.244;2023-03-14T16:47:08;6.30;99.90
3940;DHT22;1984;48.312;9.244;2023-03-14T16:49:34;6.20;99.90
3940;DHT22;1984;48.312;9.244;2023-03-14T16:52:00;6.20;99.90
3940;DHT22;1984;48.312;9.244;2023-03-14T16:54:25;6.20;99.90
3940;DHT22;1984;48.312;9.244;2023-03-14T16:56:51;6.20;99.90
3940;DHT22;1984;48.312;9.244;2023-03-14T16:59:17;6.20;99.90
3940;DHT22;1984;48.312;9.244;2023-03-14T17:01:43;6.10;99.90
3940;DHT22;1984;48.312;9.244;2023-03-14T17:04:09;6.10;99.90
3940;DHT22;1984;48.312;9.244;2023-03-14T17:06:35;6.20;99.90
3940;DHT22;1984;48.312;9.244;2023-03-14T17:09:01;6.10;99.90
3940;DHT22;1984;48.312;9.244;2023-03-14T17:11:29;6.10;99.90
3940;DHT22;1984;48.312;9.244;2023-03-14T17:13:57;6.10;99.90
3940;DHT22;1984;48.312;9.244;2023-03-14T17:16:23;6.00;99.90
3940;DHT22;1984;48.312;9.244;2023-03-14T17:18:48;6.00;99.90
3940;DHT22;1984;48.312;9.244;2023-03-14T17:21:14;6.00;99.90
3940;DHT22;1984;48.312;9.244;2023-03-14T17:23:39;6.00;99.90
3940;DHT22;1984;48.312;9.244;2023-03-14T17:26:05;6.00;99.90
3940;DHT22;1984;48.312;9.244;2023-03-14T17:28:32;6.00;99.90
3940;DHT22;1984;48.312;9.244;2023-03-14T17:33:31;6.00;99.90
3940;DHT22;1984;48.312;9.244;2023-03-14T17:35:57;6.00;99.90
3940;DHT22;1984;48.312;9.244;2023-03-14T17:38:22;6.10;99.90
3940;DHT22;1984;48.312;9.244;2023-03-14T17:40:48;6.20;99.90